Time;durP1;ratioP1;P1;durP2;ratioP2;P2;SDS_P1;SDS_P2;PMS_P1;PMS_P2;Temp;Humidity;BMP_temperature;BMP_pressure;BME280_temperature;BME280_humidity;BME280_pressure;Samples;Min_cycle;Max_cycle;Signal;HPM_P1;HPM_P2
2022/05/30 00:01:31;;;;;;;7.07;1.40;;;9.30;99.90;;;;;;5062662;28;20028;-50
2022/05/30 00:03:57;;;;;;;8.43;2.00;;;9.30;99.90;;;;;;5089766;28;20031;-49
2022/05/30 00:06:23;;;;;;;3.83;1.33;;;9.30;99.90;;;;;;5090749;28;20093;-48
2022/05/30 00:08:49;;;;;;;11.18;1.33;;;9.30;99.90;;;;;;5092386;28;20047;-47
2022/05/30 00:11:16;;;;;;;6.05;1.45;;;9.30;99.90;;;;;;5084100;28;20024;-51
2022/05/30 00:13:42;;;;;;;7.82;1.60;;;9.30;99.90;;;;;;5092354;28;20394;-49
2022/05/30 00:16:11;;;;;;;7.20;1.30;;;9.20;99.90;;;;;;5068766;28;20123;-48
2022/05/30 00:18:37;;;;;;;5.40;1.35;;;9.20;99.90;;;;;;5090921;28;20658;-47
2022/05/30 00:21:04;;;;;;;5.57;1.30;;;9.20;99.90;;;;;;5089807;28;20036;-51
2022/05/30 00:23:30;;;;;;;10.02;2.03;;;9.20;99.90;;;;;;5087899;28;20099;-48
2022/05/30 00:25:55;;;;;;;3.40;1.33;;;9.20;99.90;;;;;;5091120;28;20109;-46
2022/05/30 00:28:23;;;;;;;2.83;0.95;;;9.20;99.90;;;;;;5043201;28;20067;-50
2022/05/30 00:30:49;;;;;;;7.13;1.73;;;9.20;99.90;;;;;;5073404;28;20478;-49
2022/05/30 00:33:15;;;;;;;4.72;1.35;;;9.20;99.90;;;;;;5087731;28;20086;-49
2022/05/30 00:35:42;;;;;;;4.40;1.23;;;9.20;99.90;;;;;;5090443;28;20535;-47
2022/05/30 00:38:08;;;;;;;7.53;1.00;;;9.20;99.90;;;;;;5071209;28;20059;-50
2022/05/30 00:40:35;;;;;;;5.35;1.73;;;9.20;99.90;;;;;;5088005;28;20482;-50
2022/05/30 00:43:17;;;;;;;7.50;1.38;;;9.20;99.90;;;;;;5071502;28;20047;-49
2022/05/30 00:45:42;;;;;;;7.57;1.52;;;9.10;99.90;;;;;;5087243;28;20028;-51
2022/05/30 00:48:08;;;;;;;4.00;1.20;;;9.10;99.90;;;;;;5087422;28;20028;-50
2022/05/30 00:50:35;;;;;;;4.97;1.40;;;9.10;99.90;;;;;;5091440;28;20028;-51
2022/05/30 00:53:01;;;;;;;7.88;1.77;;;9.10;99.90;;;;;;5086075;28;20024;-50
2022/05/30 00:55:27;;;;;;;5.22;1.20;;;9.10;99.90;;;;;;5089509;28;20016;-52
2022/05/30 00:57:53;;;;;;;2.70;1.40;;;9.10;99.90;;;;;;5085296;28;20095;-49
2022/05/30 01:00:22;;;;;;;5.28;1.45;;;9.10;99.90;;;;;;5063777;28;20020;-48
2022/05/30 01:08:17;;;;;;;2.42;0.82;;;9.10;99.90;;;;;;5089851;28;20131;-48
2022/05/30 01:10:43;;;;;;;4.40;1.48;;;9.10;99.90;;;;;;5060205;28;20009;-48
2022/05/30 01:13:12;;;;;;;4.32;1.27;;;9.00;99.90;;;;;;5080582;28;20085;-49
2022/05/30 01:15:37;;;;;;;5.95;1.83;;;9.00;99.90;;;;;;5084965;28;20031;-47
2022/05/30 01:18:06;;;;;;;2.25;0.93;;;8.90;99.90;;;;;;5085806;28;20024;-48
2022/05/30 01:20:39;;;;;;;7.97;1.30;;;8.90;99.90;;;;;;5089844;28;20027;-49
2022/05/30 01:23:11;;;;;;;3.70;1.25;;;8.90;99.90;;;;;;5059088;28;20021;-48
2022/05/30 01:26:05;;;;;;;5.00;1.33;;;8.90;99.90;;;;;;5072514;28;20020;-48
2022/05/30 01:28:47;;;;;;;3.72;0.95;;;8.80;99.90;;;;;;5066447;28;20055;-48
2022/05/30 01:31:14;;;;;;;7.18;1.27;;;8.80;99.90;;;;;;5090014;28;20016;-51
2022/05/30 01:33:41;;;;;;;2.95;1.05;;;8.80;99.90;;;;;;5086712;28;20069;-47
2022/05/30 01:36:07;;;;;;;5.03;2.03;;;8.80;99.90;;;;;;5071305;28;20044;-47
2022/05/30 01:38:32;;;;;;;4.47;1.27;;;8.70;99.90;;;;;;5086057;28;20502;-49
2022/05/30 01:41:00;;;;;;;6.13;1.70;;;8.70;99.90;;;;;;5088319;28;20058;-49
2022/05/30 01:43:26;;;;;;;5.60;1.40;;;8.70;99.90;;;;;;5085166;28;20109;-48
2022/05/30 01:45:52;;;;;;;3.13;1.40;;;8.70;99.90;;;;;;5063509;28;20035;-49
2022/05/30 01:48:17;;;;;;;5.88;1.85;;;8.70;99.90;;;;;;5089456;28;20386;-47
2022/05/30 01:50:45;;;;;;;2.25;1.23;;;8.70;99.90;;;;;;5063407;28;20024;-49
2022/05/30 01:53:11;;;;;;;4.68;1.25;;;8.60;99.90;;;;;;5087444;28;20012;-47
2022/05/30 01:55:37;;;;;;;6.72;1.42;;;8.60;99.90;;;;;;5084320;28;20017;-49
2022/05/30 01:58:03;;;;;;;5.63;1.70;;;8.60;99.90;;;;;;5086897;28;20028;-48
2022/05/30 02:00:28;;;;;;;2.78;1.33;;;8.60;99.90;;;;;;5065628;28;20039;-48
2022/05/30 02:02:54;;;;;;;4.93;1.38;;;8.60;99.90;;;;;;5084438;28;20485;-52
2022/05/30 02:05:20;;;;;;;6.50;2.00;;;8.50;99.90;;;;;;5088353;28;20094;-48
2022/05/30 02:07:45;;;;;;;3.22;1.75;;;8.50;99.90;;;;;;5085009;28;20025;-47
2022/05/30 02:10:11;;;;;;;7.45;1.38;;;8.50;99.90;;;;;;5087480;28;20028;-48
2022/05/30 02:12:37;;;;;;;8.80;1.90;;;8.50;99.90;;;;;;5060579;28;20055;-48
2022/05/30 02:15:03;;;;;;;8.43;1.65;;;8.50;99.90;;;;;;5068561;28;20435;-48
2022/05/30 02:17:32;;;;;;;5.28;1.60;;;8.50;99.90;;;;;;5089302;28;20076;-50
2022/05/30 02:19:57;;;;;;;2.15;1.50;;;8.50;99.90;;;;;;5085206;28;20106;-48
2022/05/30 02:22:25;;;;;;;3.70;1.33;;;8.50;99.90;;;;;;5064999;28;20489;-48
2022/05/30 02:24:50;;;;;;;7.32;1.63;;;8.50;99.90;;;;;;5063945;28;20107;-48
2022/05/30 02:27:17;;;;;;;6.22;1.85;;;8.50;99.90;;;;;;5065283;28;20116;-47
2022/05/30 02:29:43;;;;;;;5.20;1.55;;;8.50;99.90;;;;;;5085330;28;20024;-49
2022/05/30 02:32:10;;;;;;;3.63;1.58;;;8.50;99.90;;;;;;5067878;28;20026;-51
2022/05/30 02:37:20;;;;;;;4.88;1.95;;;8.50;99.90;;;;;;5082661;28;20027;-48
2022/05/30 02:39:46;;;;;;;4.43;1.45;;;8.50;99.90;;;;;;5087850;28;20201;-49
2022/05/30 02:42:12;;;;;;;8.82;2.50;;;8.40;99.90;;;;;;5084185;28;20016;-48
2022/05/30 02:44:38;;;;;;;2.15;1.35;;;8.50;99.90;;;;;;5062027;28;20020;-48
2022/05/30 02:47:05;;;;;;;3.75;2.28;;;8.40;99.90;;;;;;5087876;28;20364;-49
2022/05/30 02:49:31;;;;;;;2.38;1.63;;;8.40;99.90;;;;;;5062504;28;20013;-47
2022/05/30 02:51:57;;;;;;;6.57;2.10;;;8.50;99.90;;;;;;5085692;28;20027;-48
2022/05/30 02:54:23;;;;;;;3.55;1.70;;;8.40;99.90;;;;;;5088418;28;20013;-48
2022/05/30 02:56:54;;;;;;;4.78;2.15;;;8.40;99.90;;;;;;5065664;28;20101;-48
2022/05/30 02:59:20;;;;;;;4.80;2.22;;;8.40;99.90;;;;;;5086201;28;20496;-49
2022/05/30 03:01:46;;;;;;;4.70;1.60;;;8.40;99.90;;;;;;5092830;28;20446;-49
2022/05/30 03:04:12;;;;;;;4.40;1.77;;;8.40;99.90;;;;;;5087743;28;20034;-48
2022/05/30 03:06:39;;;;;;;2.47;1.60;;;8.40;99.90;;;;;;5177786;22;20044;-49
2022/05/30 03:09:05;;;;;;;3.55;1.60;;;8.40;99.90;;;;;;5106327;28;20386;-46
2022/05/30 03:11:31;;;;;;;8.75;2.55;;;8.40;99.90;;;;;;5112914;28;20031;-46
2022/05/30 03:13:57;;;;;;;6.20;1.92;;;8.40;99.90;;;;;;5106441;28;20019;-44
2022/05/30 03:16:23;;;;;;;6.85;2.35;;;8.40;99.90;;;;;;5088061;28;20396;-48
2022/05/30 03:18:48;;;;;;;5.03;2.13;;;8.40;99.90;;;;;;5108239;28;20104;-49
2022/05/30 03:21:14;;;;;;;8.38;2.30;;;8.40;99.90;;;;;;5096452;28;20506;-50
2022/05/30 03:23:40;;;;;;;5.25;1.90;;;8.40;99.90;;;;;;5107919;28;20035;-44
2022/05/30 03:26:06;;;;;;;4.35;1.90;;;8.40;99.90;;;;;;5102480;28;20047;-44
2022/05/30 03:28:34;;;;;;;7.55;1.92;;;8.40;99.90;;;;;;5095595;28;20009;-47
2022/05/30 03:31:00;;;;;;;4.68;1.90;;;8.40;99.90;;;;;;5104791;28;20027;-46
2022/05/30 03:33:26;;;;;;;3.58;2.17;;;8.40;99.90;;;;;;5098546;28;20024;-46
2022/05/30 03:35:53;;;;;;;6.65;2.08;;;8.40;99.90;;;;;;5106858;28;20027;-44
2022/05/30 03:38:18;;;;;;;4.60;2.22;;;8.50;99.90;;;;;;5082890;28;20382;-44
2022/05/30 03:40:44;;;;;;;6.32;1.90;;;8.40;99.90;;;;;;5100257;28;20024;-45
2022/05/30 03:43:11;;;;;;;5.60;1.77;;;8.50;99.90;;;;;;5105583;28;20027;-48
2022/05/30 03:45:39;;;;;;;5.57;2.08;;;8.50;99.90;;;;;;5100926;28;20073;-47
2022/05/30 03:48:05;;;;;;;5.03;2.28;;;8.50;99.90;;;;;;5106965;28;20027;-46
2022/05/30 03:50:31;;;;;;;5.18;2.40;;;8.50;99.90;;;;;;5099653;28;20488;-46
2022/05/30 03:53:04;;;;;;;5.47;2.42;;;8.50;99.90;;;;;;5099216;28;20043;-46
2022/05/30 03:55:34;;;;;;;4.47;1.60;;;8.50;99.90;;;;;;5106813;28;20024;-45
2022/05/30 03:58:00;;;;;;;2.22;1.38;;;8.50;99.90;;;;;;5100165;28;20513;-47
2022/05/30 04:00:26;;;;;;;4.90;2.00;;;8.50;99.90;;;;;;5104227;28;20039;-45
2022/05/30 04:02:52;;;;;;;6.75;2.72;;;8.50;99.90;;;;;;5102033;28;20154;-44
2022/05/30 04:05:19;;;;;;;4.20;1.60;;;8.50;99.90;;;;;;5104391;28;20494;-47
2022/05/30 04:07:44;;;;;;;2.47;1.77;;;8.60;99.90;;;;;;5103663;28;20038;-45
2022/05/30 04:10:11;;;;;;;6.75;2.30;;;8.60;99.90;;;;;;5103252;28;20389;-46
2022/05/30 04:12:37;;;;;;;6.25;2.25;;;8.60;99.90;;;;;;5104784;28;20027;-46
2022/05/30 04:15:05;;;;;;;3.60;1.55;;;8.60;99.90;;;;;;5102360;28;20044;-45
2022/05/30 04:17:33;;;;;;;2.72;1.52;;;8.60;99.90;;;;;;5103885;28;20106;-46
2022/05/30 04:19:59;;;;;;;4.97;1.50;;;8.60;99.90;;;;;;5101784;28;20052;-45
2022/05/30 04:22:24;;;;;;;4.57;1.67;;;8.70;99.90;;;;;;5103828;28;20493;-47
2022/05/30 04:24:52;;;;;;;6.13;1.70;;;8.60;99.90;;;;;;5102926;28;20016;-45
2022/05/30 04:27:17;;;;;;;5.47;2.10;;;8.70;99.90;;;;;;5103634;28;20499;-46
2022/05/30 04:29:43;;;;;;;2.42;1.40;;;8.70;99.90;;;;;;5101789;28;20024;-45
2022/05/30 04:32:09;;;;;;;2.33;1.55;;;8.70;99.90;;;;;;5102273;28;20028;-45
2022/05/30 04:34:36;;;;;;;3.03;1.63;;;8.80;99.90;;;;;;5103288;28;20019;-47
2022/05/30 04:37:03;;;;;;;7.10;2.35;;;8.80;99.90;;;;;;5101505;28;20027;-45
2022/05/30 04:39:29;;;;;;;5.35;2.50;;;8.80;99.90;;;;;;5103455;28;20436;-47
2022/05/30 04:41:55;;;;;;;7.47;2.45;;;8.80;99.90;;;;;;5102380;28;20036;-45
2022/05/30 04:44:20;;;;;;;3.05;2.15;;;8.90;99.90;;;;;;5103476;28;20023;-45
2022/05/30 04:46:54;;;;;;;4.63;2.17;;;8.90;99.90;;;;;;5101039;28;20066;-47
2022/05/30 04:49:20;;;;;;;6.35;2.08;;;8.90;99.90;;;;;;5091837;28;20020;-50
2022/05/30 04:51:46;;;;;;;3.75;1.55;;;8.90;99.90;;;;;;5099239;28;20023;-52
2022/05/30 04:54:11;;;;;;;6.57;2.45;;;9.00;99.90;;;;;;5102764;28;20024;-47
2022/05/30 04:56:37;;;;;;;6.50;2.65;;;9.00;99.90;;;;;;5103323;28;20042;-44
2022/05/30 04:59:04;;;;;;;3.92;1.52;;;9.10;99.90;;;;;;5101059;28;20032;-46
2022/05/30 05:01:30;;;;;;;8.05;2.40;;;9.10;99.90;;;;;;5103786;28;20106;-48
2022/05/30 05:03:55;;;;;;;3.08;1.83;;;9.10;99.90;;;;;;5101948;28;20024;-46
2022/05/30 05:06:22;;;;;;;3.90;1.73;;;9.20;99.90;;;;;;5102830;28;20030;-51
2022/05/30 05:08:50;;;;;;;4.65;2.08;;;9.20;99.90;;;;;;5103030;28;20039;-48
2022/05/30 05:11:24;;;;;;;6.03;2.00;;;9.20;99.90;;;;;;5100685;28;20038;-50
2022/05/30 05:13:51;;;;;;;2.50;1.38;;;9.20;99.90;;;;;;5102884;28;20491;-51
2022/05/30 05:16:19;;;;;;;4.95;1.70;;;9.20;99.90;;;;;;5081291;28;20028;-48
2022/05/30 05:18:45;;;;;;;4.30;2.03;;;9.20;99.90;;;;;;5105831;28;20024;-51
2022/05/30 05:21:19;;;;;;;4.93;1.63;;;9.30;99.90;;;;;;5098658;28;20038;-52
2022/05/30 05:23:45;;;;;;;3.95;1.52;;;9.40;99.90;;;;;;5105419;28;20393;-49
2022/05/30 05:26:11;;;;;;;6.22;2.00;;;9.40;99.90;;;;;;5099163;28;20024;-46
2022/05/30 05:28:37;;;;;;;5.35;2.90;;;9.50;99.90;;;;;;5099093;28;20027;-47
2022/05/30 05:31:05;;;;;;;2.92;1.60;;;9.50;99.90;;;;;;5105109;28;20019;-45
2022/05/30 05:33:30;;;;;;;5.45;2.28;;;9.50;99.90;;;;;;5098635;28;20039;-46
2022/05/30 05:35:56;;;;;;;8.45;2.45;;;9.50;99.90;;;;;;5106634;28;20032;-47
2022/05/30 05:38:21;;;;;;;6.40;1.75;;;9.60;99.90;;;;;;5102000;28;20043;-46
2022/05/30 05:40:47;;;;;;;7.78;2.13;;;9.70;99.90;;;;;;5106338;28;20080;-46
2022/05/30 05:43:13;;;;;;;4.32;2.03;;;9.70;99.90;;;;;;5098499;28;20023;-47
2022/05/30 05:45:41;;;;;;;3.97;2.75;;;9.80;99.90;;;;;;5072183;28;20413;-46
2022/05/30 05:48:08;;;;;;;4.15;1.77;;;9.80;99.90;;;;;;5104824;28;20047;-47
2022/05/30 05:50:38;;;;;;;6.75;1.83;;;9.90;99.90;;;;;;5097115;28;20521;-46
2022/05/30 05:53:04;;;;;;;3.92;2.30;;;9.80;99.90;;;;;;5099172;28;20431;-49
2022/05/30 05:55:30;;;;;;;4.20;1.38;;;9.90;99.90;;;;;;5104959;28;20077;-46
2022/05/30 05:57:55;;;;;;;5.80;1.60;;;9.90;99.90;;;;;;5096904;28;20036;-46
2022/05/30 06:00:21;;;;;;;6.90;1.60;;;10.00;99.90;;;;;;5102077;28;20092;-46
2022/05/30 06:02:47;;;;;;;2.47;1.80;;;10.00;99.90;;;;;;5100284;28;20116;-47
2022/05/30 06:05:13;;;;;;;5.72;2.05;;;10.10;99.90;;;;;;5101777;28;20012;-46
2022/05/30 06:07:40;;;;;;;4.28;1.65;;;10.10;99.90;;;;;;5083671;28;20036;-48
2022/05/30 06:10:08;;;;;;;9.70;1.42;;;10.10;99.90;;;;;;5100631;28;20058;-46
2022/05/30 06:12:36;;;;;;;4.95;2.35;;;10.10;99.90;;;;;;5108788;28;20502;-46
2022/05/30 06:15:06;;;;;;;4.53;1.70;;;10.20;99.90;;;;;;5095222;28;20514;-45
2022/05/30 06:17:32;;;;;;;5.15;1.85;;;10.30;99.90;;;;;;5101967;28;20036;-46
2022/05/30 06:19:59;;;;;;;8.43;1.90;;;10.20;99.90;;;;;;5100764;28;20106;-46
2022/05/30 06:22:25;;;;;;;6.35;2.13;;;10.20;99.90;;;;;;5101479;28;20062;-46
2022/05/30 06:24:50;;;;;;;4.78;1.60;;;10.20;99.90;;;;;;5101595;28;20081;-48
2022/05/30 06:27:18;;;;;;;3.33;1.60;;;10.20;99.90;;;;;;5099942;28;20486;-45
2022/05/30 06:29:44;;;;;;;3.47;1.42;;;10.30;99.90;;;;;;5101941;28;20022;-45
2022/05/30 06:32:10;;;;;;;6.30;1.73;;;10.20;99.90;;;;;;5081695;28;20019;-47
2022/05/30 06:34:36;;;;;;;5.32;1.55;;;10.20;99.90;;;;;;5101496;28;20024;-46
2022/05/30 06:37:01;;;;;;;5.93;2.15;;;10.20;99.90;;;;;;5101208;28;20075;-47
2022/05/30 06:39:27;;;;;;;4.20;1.13;;;10.30;99.90;;;;;;5101526;28;20019;-46
2022/05/30 06:41:53;;;;;;;4.57;1.50;;;10.30;99.90;;;;;;5100621;28;20079;-46
2022/05/30 06:44:19;;;;;;;3.58;1.40;;;10.20;99.90;;;;;;5100301;28;20023;-47
2022/05/30 06:46:45;;;;;;;5.68;1.48;;;10.30;99.90;;;;;;5101178;28;20020;-45
2022/05/30 06:49:11;;;;;;;3.63;1.27;;;10.30;99.90;;;;;;5099938;28;20026;-45
2022/05/30 06:51:37;;;;;;;3.70;1.70;;;10.40;99.90;;;;;;5097319;28;20043;-47
2022/05/30 06:54:04;;;;;;;4.97;2.05;;;10.50;99.90;;;;;;5101137;28;20016;-46
2022/05/30 06:56:34;;;;;;;5.32;1.40;;;10.60;99.90;;;;;;5101303;28;20554;-47
2022/05/30 06:59:00;;;;;;;5.07;1.90;;;10.60;99.90;;;;;;5091540;28;20081;-46
2022/05/30 07:01:30;;;;;;;4.50;1.90;;;10.60;99.90;;;;;;5085732;28;20034;-45
2022/05/30 07:03:56;;;;;;;3.83;1.33;;;10.60;99.90;;;;;;5096673;28;20035;-45
2022/05/30 07:06:33;;;;;;;4.28;1.63;;;10.60;99.90;;;;;;5094173;28;20028;-45
2022/05/30 07:08:59;;;;;;;5.72;1.67;;;10.60;99.90;;;;;;5092624;28;20382;-45
2022/05/30 07:11:25;;;;;;;5.47;2.17;;;10.70;99.90;;;;;;5082678;28;20099;-45
2022/05/30 07:13:51;;;;;;;8.30;1.98;;;10.80;99.90;;;;;;5099953;28;20099;-50
2022/05/30 07:16:18;;;;;;;4.70;1.60;;;10.80;99.90;;;;;;5102034;28;20385;-49
2022/05/30 07:18:44;;;;;;;5.35;1.80;;;10.90;99.90;;;;;;5101478;28;20116;-52
2022/05/30 07:21:13;;;;;;;5.60;1.48;;;10.80;99.90;;;;;;5100507;28;20098;-50
2022/05/30 07:23:39;;;;;;;4.35;1.35;;;10.80;99.90;;;;;;5100645;28;20023;-50
2022/05/30 07:26:08;;;;;;;6.72;1.83;;;10.60;99.90;;;;;;5099676;28;20111;-46
2022/05/30 07:28:34;;;;;;;4.72;1.48;;;10.50;99.90;;;;;;5101224;28;20027;-50
2022/05/30 07:31:08;;;;;;;4.43;1.98;;;10.50;99.90;;;;;;5099989;28;20153;-48
2022/05/30 07:33:35;;;;;;;6.85;2.35;;;10.50;99.90;;;;;;5095303;28;20068;-46
2022/05/30 07:36:02;;;;;;;5.22;1.20;;;10.40;99.90;;;;;;5098787;28;20028;-45
2022/05/30 07:38:27;;;;;;;4.35;1.40;;;10.40;99.90;;;;;;5101188;28;20030;-48
2022/05/30 07:40:53;;;;;;;5.32;1.73;;;10.30;99.90;;;;;;5099555;28;20024;-46
2022/05/30 07:43:19;;;;;;;6.38;1.95;;;10.30;99.90;;;;;;5101336;28;20012;-47
2022/05/30 07:45:46;;;;;;;3.53;2.00;;;10.30;99.90;;;;;;5101558;28;20024;-50
2022/05/30 07:48:11;;;;;;;1.80;1.10;;;10.30;99.90;;;;;;5104941;28;20008;-46
2022/05/30 07:50:37;;;;;;;4.60;1.42;;;10.30;99.90;;;;;;5104641;28;20077;-46
2022/05/30 07:53:04;;;;;;;4.15;1.90;;;10.20;99.90;;;;;;5102060;28;20099;-48
2022/05/30 07:55:30;;;;;;;3.58;1.20;;;10.30;99.90;;;;;;5104538;28;20028;-45
2022/05/30 07:58:04;;;;;;;6.63;1.77;;;10.40;99.90;;;;;;5103103;28;20115;-45
2022/05/30 08:00:32;;;;;;;5.80;1.40;;;10.40;99.90;;;;;;5104506;28;20035;-47
2022/05/30 08:02:58;;;;;;;5.80;1.67;;;10.40;99.90;;;;;;5103583;28;20486;-46
2022/05/30 08:05:23;;;;;;;4.22;1.75;;;10.50;99.90;;;;;;5104523;28;20053;-46
2022/05/30 08:07:49;;;;;;;4.78;1.77;;;10.60;99.90;;;;;;5099424;28;20028;-46
2022/05/30 08:10:16;;;;;;;3.20;1.27;;;10.60;99.90;;;;;;5103161;28;20380;-46
2022/05/30 08:12:42;;;;;;;3.70;1.13;;;10.70;99.90;;;;;;5104182;28;20022;-46
2022/05/30 08:15:09;;;;;;;7.70;1.80;;;10.70;99.90;;;;;;5103678;28;20091;-46
2022/05/30 08:17:35;;;;;;;3.35;1.67;;;10.60;99.90;;;;;;5104414;28;20042;-45
2022/05/30 08:20:02;;;;;;;3.25;1.85;;;10.60;99.90;;;;;;5102207;28;20047;-45
2022/05/30 08:22:28;;;;;;;3.90;2.05;;;10.50;99.90;;;;;;5104029;28;20015;-45
2022/05/30 08:24:54;;;;;;;7.00;1.63;;;10.50;99.90;;;;;;5084851;28;20585;-47
2022/05/30 08:27:20;;;;;;;7.13;2.15;;;10.50;99.90;;;;;;5103347;28;20126;-45
2022/05/30 08:29:46;;;;;;;5.35;1.80;;;10.50;99.90;;;;;;5103736;28;20027;-47
2022/05/30 08:32:12;;;;;;;7.35;2.10;;;10.50;99.90;;;;;;5084552;28;20099;-46
2022/05/30 08:34:42;;;;;;;8.32;2.22;;;10.40;99.90;;;;;;5103649;28;20399;-49
2022/05/30 08:37:09;;;;;;;4.15;1.73;;;10.60;99.90;;;;;;5100563;28;20023;-48
2022/05/30 08:42:27;;;;;;;4.40;1.92;;;10.90;99.90;;;;;;5096820;28;20050;-48
2022/05/30 08:44:54;;;;;;;2.22;1.60;;;11.00;99.90;;;;;;5107185;28;20027;-47
2022/05/30 08:47:51;;;;;;;2.45;1.90;;;11.10;99.90;;;;;;5099652;28;20443;-47
2022/05/30 08:50:30;;;;;;;2.63;1.92;;;11.20;99.90;;;;;;5092185;28;20020;-46
2022/05/30 08:53:34;;;;;;;5.72;1.75;;;11.40;99.90;;;;;;5098309;28;20044;-46
2022/05/30 08:56:17;;;;;;;3.95;1.60;;;11.30;99.90;;;;;;5101353;28;20103;-46
2022/05/30 08:58:55;;;;;;;3.92;1.65;;;11.40;99.90;;;;;;5103533;28;20027;-48
2022/05/30 09:01:31;;;;;;;5.43;1.98;;;11.30;99.90;;;;;;5102381;28;20030;-47
2022/05/30 09:04:16;;;;;;;3.30;1.70;;;11.20;99.90;;;;;;5102197;28;20076;-51
2022/05/30 09:06:56;;;;;;;4.40;1.48;;;11.00;99.90;;;;;;5095370;28;20086;-47
2022/05/30 09:09:42;;;;;;;2.33;1.35;;;11.00;99.90;;;;;;5090153;28;20475;-45
2022/05/30 09:12:18;;;;;;;3.33;1.77;;;10.90;99.90;;;;;;5083178;28;20114;-46
2022/05/30 09:14:56;;;;;;;3.25;2.45;;;10.90;99.90;;;;;;5084943;28;20408;-51
2022/05/30 09:17:35;;;;;;;3.28;1.77;;;10.90;99.90;;;;;;5093901;28;20068;-46
2022/05/30 09:20:06;;;;;;;5.00;1.85;;;10.80;99.90;;;;;;5101117;28;20085;-51
2022/05/30 09:22:32;;;;;;;2.63;2.25;;;10.70;99.90;;;;;;5103721;28;20182;-48
2022/05/30 09:27:43;;;;;;;1.70;1.60;;;10.40;99.90;;;;;;5101500;28;20436;-50
2022/05/30 09:30:12;;;;;;;1.30;1.20;;;10.40;99.90;;;;;;5099897;28;20036;-45
2022/05/30 09:32:55;;;;;;;4.90;1.80;;;10.30;99.90;;;;;;5106233;28;20020;-47
2022/05/30 09:35:28;;;;;;;3.83;2.17;;;10.30;99.90;;;;;;5076374;28;20024;-51
2022/05/30 09:38:18;;;;;;;2.70;1.80;;;10.30;99.90;;;;;;5099831;28;20111;-49
2022/05/30 09:40:48;;;;;;;4.10;2.08;;;10.20;99.90;;;;;;5101440;28;20031;-50
2022/05/30 09:43:23;;;;;;;7.18;2.42;;;10.20;99.90;;;;;;5069089;28;20385;-49
2022/05/30 09:45:49;;;;;;;2.65;2.22;;;10.20;99.90;;;;;;5101026;28;20028;-48
2022/05/30 09:48:20;;;;;;;4.20;2.25;;;10.20;99.90;;;;;;5102574;28;20027;-48
2022/05/30 09:50:52;;;;;;;2.10;1.90;;;10.10;99.90;;;;;;5102849;28;20028;-49
2022/05/30 09:53:42;;;;;;;2.33;1.70;;;10.10;99.90;;;;;;5089706;28;20018;-48
2022/05/30 09:56:09;;;;;;;2.95;2.15;;;10.20;99.90;;;;;;5100331;28;20052;-45
2022/05/30 09:58:47;;;;;;;4.38;2.20;;;10.20;99.90;;;;;;5102302;28;20502;-47
2022/05/30 10:01:23;;;;;;;6.60;2.30;;;10.20;99.90;;;;;;5100861;28;20043;-51
2022/05/30 10:03:52;;;;;;;2.10;1.90;;;10.30;99.90;;;;;;5102243;28;20078;-47
2022/05/30 10:06:25;;;;;;;2.03;1.88;;;10.30;99.90;;;;;;5101956;28;20024;-48
2022/05/30 10:09:13;;;;;;;2.72;1.85;;;10.30;99.90;;;;;;5095551;28;20043;-47
2022/05/30 10:11:40;;;;;;;4.32;2.05;;;10.30;99.90;;;;;;5083824;28;20016;-46
2022/05/30 10:14:34;;;;;;;3.05;1.75;;;10.30;99.90;;;;;;5100769;28;20020;-48
2022/05/30 10:17:19;;;;;;;2.20;2.00;;;10.40;99.90;;;;;;5098529;28;20410;-47
2022/05/30 10:19:48;;;;;;;3.33;1.83;;;10.50;99.90;;;;;;5101707;28;20016;-46
2022/05/30 10:28:32;;;;;;;2.03;1.77;;;10.70;99.90;;;;;;5092997;28;20031;-47
2022/05/30 10:31:19;;;;;;;3.00;1.48;;;10.80;99.90;;;;;;5099436;28;20333;-46
2022/05/30 10:33:54;;;;;;;;;;;10.80;99.90;;;;;;5102666;28;20480;-47
2022/05/30 10:36:44;;;;;;;2.63;1.70;;;11.00;99.90;;;;;;5089582;28;19904;-48
2022/05/30 10:39:26;;;;;;;3.75;1.83;;;11.00;99.90;;;;;;5099487;28;20088;-48
2022/05/30 10:42:10;;;;;;;3.25;1.52;;;11.20;99.90;;;;;;5083035;28;20035;-47
2022/05/30 10:44:40;;;;;;;2.40;1.90;;;11.30;99.90;;;;;;5098603;28;20026;-51
2022/05/30 10:47:31;;;;;;;2.08;1.75;;;11.40;99.90;;;;;;5099206;28;20042;-46
2022/05/30 10:50:06;;;;;;;1.85;1.73;;;11.40;99.90;;;;;;5088050;28;20027;-49
2022/05/30 10:52:38;;;;;;;1.77;1.67;;;11.40;99.90;;;;;;5097332;28;20027;-46
2022/05/30 10:55:06;;;;;;;2.20;2.00;;;11.50;99.90;;;;;;5099970;28;20059;-46
2022/05/30 10:57:40;;;;;;;2.30;1.83;;;11.50;99.90;;;;;;5101778;28;20031;-47
2022/05/30 11:00:13;;;;;;;3.53;1.95;;;11.40;99.90;;;;;;5100428;28;20351;-45
2022/05/30 11:02:48;;;;;;;2.33;2.05;;;11.40;99.90;;;;;;5101335;28;20024;-46
2022/05/30 11:05:26;;;;;;;4.00;2.42;;;11.40;99.90;;;;;;5087259;28;20365;-46
2022/05/30 11:08:14;;;;;;;3.40;1.90;;;11.30;99.90;;;;;;5099740;28;20042;-45
2022/05/30 11:10:57;;;;;;;2.22;2.03;;;11.20;99.90;;;;;;5099182;28;20024;-45
2022/05/30 11:13:43;;;;;;;5.13;2.78;;;11.10;99.90;;;;;;5093527;28;20020;-45
2022/05/30 11:16:32;;;;;;;7.07;2.60;;;11.10;99.90;;;;;;5106176;28;20042;-46
2022/05/30 11:19:08;;;;;;;3.80;2.30;;;11.00;99.90;;;;;;5097472;28;20032;-45
2022/05/30 11:22:17;;;;;;;5.65;1.80;;;11.00;99.90;;;;;;5103808;28;20027;-45
2022/05/30 11:24:49;;;;;;;2.47;1.70;;;11.00;99.90;;;;;;5088160;28;20067;-45
2022/05/30 11:27:31;;;;;;;3.17;2.00;;;11.00;99.90;;;;;;5103707;28;20416;-48
2022/05/30 11:30:08;;;;;;;1.58;1.48;;;11.10;99.90;;;;;;5104096;28;20047;-50
2022/05/30 11:32:45;;;;;;;2.47;1.85;;;11.20;99.90;;;;;;5101725;28;20011;-51
2022/05/30 11:35:36;;;;;;;3.90;2.03;;;11.20;99.90;;;;;;5101774;28;20039;-47
2022/05/30 11:38:20;;;;;;;3.45;1.58;;;11.30;99.90;;;;;;5101540;28;20354;-50
2022/05/30 11:41:22;;;;;;;4.15;1.92;;;11.20;99.90;;;;;;5103469;28;20051;-46
2022/05/30 11:44:13;;;;;;;2.50;2.03;;;11.30;99.90;;;;;;5058574;28;20039;-48
2022/05/30 11:47:12;;;;;;;2.10;2.00;;;11.40;99.90;;;;;;5099490;28;20024;-46
2022/05/30 11:49:51;;;;;;;2.97;2.42;;;11.40;99.90;;;;;;5103036;28;20090;-50
2022/05/30 11:52:25;;;;;;;2.75;2.05;;;11.60;99.90;;;;;;5095360;28;20016;-46
2022/05/30 11:55:03;;;;;;;3.13;1.70;;;11.60;99.90;;;;;;5101449;28;20020;-45
2022/05/30 11:57:35;;;;;;;4.10;2.05;;;11.70;99.90;;;;;;5105689;28;20062;-46
2022/05/30 12:00:07;;;;;;;4.57;1.70;;;11.90;99.90;;;;;;5102666;28;20514;-48
2022/05/30 12:02:51;;;;;;;2.35;1.92;;;11.90;99.90;;;;;;5105302;28;20024;-49
2022/05/30 12:05:32;;;;;;;4.38;1.75;;;12.10;99.90;;;;;;5090963;28;20055;-47
2022/05/30 12:08:27;;;;;;;1.90;1.40;;;12.10;99.90;;;;;;5101263;28;20035;-46
2022/05/30 12:11:13;;;;;;;2.20;1.45;;;12.00;99.90;;;;;;5104972;28;20016;-46
2022/05/30 12:14:09;;;;;;;1.83;1.40;;;12.00;99.90;;;;;;5100755;28;20027;-46
2022/05/30 12:17:05;;;;;;;4.07;1.10;;;12.00;99.90;;;;;;5095269;28;20544;-46
2022/05/30 12:25:45;;;;;;;1.73;1.17;;;11.80;99.90;;;;;;5102109;28;20535;-46
2022/05/30 12:28:32;;;;;;;1.45;1.05;;;11.80;99.90;;;;;;5081642;28;20089;-47
2022/05/30 12:31:00;;;;;;;1.70;1.45;;;11.90;99.90;;;;;;5099468;28;20048;-50
2022/05/30 12:33:29;;;;;;;3.17;1.00;;;12.00;99.90;;;;;;5088242;28;20482;-49
2022/05/30 12:36:09;;;;;;;1.20;1.00;;;12.10;99.90;;;;;;5098586;28;20035;-47
2022/05/30 12:38:57;;;;;;;2.83;1.20;;;12.30;99.90;;;;;;5103866;28;20057;-50
2022/05/30 12:41:58;;;;;;;5.47;1.52;;;12.50;99.90;;;;;;5093390;28;20023;-46
2022/05/30 12:44:45;;;;;;;2.67;0.80;;;12.70;99.90;;;;;;5103986;28;20020;-50
2022/05/30 12:47:24;;;;;;;1.73;0.82;;;12.90;99.90;;;;;;5100161;28;20027;-46
2022/05/30 12:49:49;;;;;;;4.13;0.70;;;13.10;99.90;;;;;;5108244;28;20027;-47
2022/05/30 12:52:19;;;;;;;1.98;0.70;;;13.20;99.90;;;;;;5099738;28;20032;-52
2022/05/30 12:54:58;;;;;;;1.33;0.85;;;13.10;99.90;;;;;;5100093;28;20116;-51
2022/05/30 12:57:38;;;;;;;1.40;0.80;;;13.20;99.90;;;;;;5094800;28;20031;-50
2022/05/30 13:00:43;;;;;;;3.33;0.93;;;13.20;99.90;;;;;;5091741;28;20398;-49
2022/05/30 13:03:32;;;;;;;2.33;1.13;;;13.30;99.90;;;;;;5095202;28;20036;-50
2022/05/30 13:06:10;;;;;;;1.90;1.17;;;13.30;99.90;;;;;;5104895;28;20039;-46
2022/05/30 13:08:57;;;;;;;3.85;1.45;;;13.10;99.90;;;;;;5096999;28;20039;-46
2022/05/30 13:11:32;;;;;;;3.22;1.67;;;13.00;99.90;;;;;;5095967;28;20431;-47
2022/05/30 13:14:12;;;;;;;2.30;1.10;;;12.70;99.90;;;;;;5102005;28;20488;-46
2022/05/30 13:16:41;;;;;;;2.88;1.33;;;12.60;99.90;;;;;;5100673;28;20020;-46
2022/05/30 13:19:10;;;;;;;3.72;1.27;;;12.50;99.90;;;;;;5100450;28;20044;-46
2022/05/30 13:21:39;;;;;;;1.52;0.98;;;12.40;99.90;;;;;;5094015;28;20024;-46
2022/05/30 13:24:24;;;;;;;2.55;1.13;;;12.30;99.90;;;;;;5105882;28;20516;-46
2022/05/30 13:26:50;;;;;;;2.15;0.68;;;12.30;99.90;;;;;;5096031;28;20064;-46
2022/05/30 13:29:15;;;;;;;1.98;1.23;;;12.30;99.90;;;;;;5106480;28;20047;-46
2022/05/30 13:31:41;;;;;;;2.95;1.23;;;12.30;99.90;;;;;;5098974;28;20028;-49
2022/05/30 13:34:07;;;;;;;5.43;1.33;;;12.20;99.90;;;;;;5093594;28;20112;-50
2022/05/30 13:36:34;;;;;;;3.60;1.23;;;12.20;99.90;;;;;;5084312;28;20020;-47